PIB weather

Balancan Airstrip
Balancan, Tabasco, Mexico

Public forecast

Using degrees Celsius for public forecast. Weather courtesy of forecast.io.

METAR (pilot weather report)

Closest report is Palenque International Airport, 33.6 nm (62.2 km) SW. Retrieved 2019/06/25 21:41 UTC (29 minutes ago):

MMPQ 252141Z 07012KT 6SM BKN200 34/24 A2971 RMK 8/008 HZY

TAF (pilot weather forecast)

Closest forecast is Palenque International Airport, 33.6 nm (62.2 km) SW. Retrieved 2019/06/25 18:57 UTC (3 hours ago):

TAF MMPQ 251657Z 2518/2618 15012KT 6SM HZ SCT030 BKN200 FM260200 12012KT 6SM SCT020 SCT100